Time;durP1;ratioP1;P1;durP2;ratioP2;P2;SDS_P1;SDS_P2;PMS_P1;PMS_P2;Temp;Humidity;BMP_temperature;BMP_pressure;BME280_temperature;BME280_humidity;BME280_pressure;Samples;Min_cycle;Max_cycle;Signal;HPM_P1;HPM_P2
2021/06/18 00:00:35;;;;;;;3.50;2.03;;;;;;;17.77;54.37;101183.84;5094085;28;20205;-71
2021/06/18 00:03:05;;;;;;;8.17;1.63;;;;;;;17.99;54.38;101230.63;5124932;27;20722;-71
2021/06/18 00:05:33;;;;;;;1.77;1.50;;;;;;;17.97;54.25;101218.19;5108711;28;20261;-71
2021/06/18 00:08:01;;;;;;;5.90;1.87;;;;;;;17.89;54.51;101209.88;5108469;27;20202;-72
2021/06/18 00:10:29;;;;;;;2.10;1.73;;;;;;;17.96;54.32;101227.34;5108630;28;20200;-71
2021/06/18 00:12:58;;;;;;;2.27;1.60;;;;;;;17.95;54.25;101225.63;5105942;28;20906;-72
2021/06/18 00:15:27;;;;;;;2.80;1.90;;;;;;;17.91;54.61;101226.91;5108713;28;20232;-72
2021/06/18 00:17:55;;;;;;;2.10;1.70;;;;;;;17.83;54.80;101226.75;5105753;28;20227;-72
2021/06/18 00:20:24;;;;;;;5.33;2.07;;;;;;;17.78;55.29;101227.19;5107769;28;20210;-72
2021/06/18 00:22:52;;;;;;;2.03;1.80;;;;;;;17.74;55.42;101227.56;5108955;28;20191;-72
2021/06/18 00:25:20;;;;;;;3.13;1.87;;;;;;;17.71;55.35;101219.69;5109354;28;20671;-72
2021/06/18 00:27:48;;;;;;;2.87;1.90;;;;;;;17.64;55.87;101219.34;5107900;28;20192;-72
2021/06/18 00:30:18;;;;;;;5.43;1.87;;;;;;;17.57;56.50;101210.91;5106572;28;20291;-72
2021/06/18 00:32:48;;;;;;;2.03;1.83;;;;;;;17.39;57.04;101193.53;5107325;28;20579;-72
2021/06/18 00:35:16;;;;;;;4.63;1.80;;;;;;;17.43;56.39;101211.25;5105418;28;20691;-72
2021/06/18 00:37:45;;;;;;;2.00;1.80;;;;;;;17.15;56.92;101172.16;5107655;28;20222;-72
2021/06/18 00:40:13;;;;;;;3.77;1.90;;;;;;;17.28;58.03;101199.94;5108883;28;20203;-72
2021/06/18 00:42:42;;;;;;;3.33;2.03;;;;;;;17.23;57.77;101202.19;5108543;28;20196;-72
2021/06/18 00:45:12;;;;;;;4.40;1.83;;;;;;;17.10;58.20;101190.69;5108232;28;20196;-72
2021/06/18 00:47:47;;;;;;;6.53;2.60;;;;;;;17.04;58.90;101197.50;5103948;28;20262;-73
2021/06/18 00:50:17;;;;;;;8.47;2.60;;;;;;;17.01;58.50;101191.50;5109145;28;20609;-72
2021/06/18 00:52:46;;;;;;;7.60;2.20;;;;;;;16.93;58.82;101183.19;5108521;28;20200;-72
2021/06/18 00:55:15;;;;;;;5.50;2.47;;;;;;;16.82;58.85;101173.25;5107326;28;20697;-72
2021/06/18 00:57:44;;;;;;;3.17;2.60;;;;;;;16.83;58.53;101183.09;5108706;28;20196;-72
2021/06/18 01:00:13;;;;;;;2.30;2.10;;;;;;;16.78;59.63;101177.22;5106287;28;20217;-71
2021/06/18 01:02:42;;;;;;;8.13;2.30;;;;;;;16.76;59.09;101181.91;5106187;28;20284;-72
2021/06/18 01:05:14;;;;;;;2.33;2.00;;;;;;;16.75;58.50;101177.47;5105020;28;20819;-72
2021/06/18 01:07:53;;;;;;;4.23;2.27;;;;;;;16.75;59.00;101169.34;5107765;28;20211;-72
2021/06/18 01:10:28;;;;;;;2.70;2.30;;;;;;;16.46;58.57;101125.72;5095604;28;20242;-72
2021/06/18 01:13:06;;;;;;;5.97;2.10;;;;;;;16.63;59.36;101163.13;5104635;28;20245;-71
2021/06/18 01:15:46;;;;;;;4.83;2.60;;;;;;;16.60;59.89;101154.38;5107009;28;20235;-71
2021/06/18 01:18:17;;;;;;;3.60;2.40;;;;;;;16.23;60.63;101106.06;5107180;28;20199;-70
2021/06/18 01:21:02;;;;;;;6.20;2.70;;;;;;;16.51;59.69;101144.31;5107564;28;20199;-71
2021/06/18 01:23:49;;;;;;;4.27;2.23;;;;;;;16.49;59.99;101146.28;5106498;28;20763;-72
2021/06/18 01:26:34;;;;;;;4.03;2.00;;;;;;;16.43;60.17;101145.84;5105912;28;20546;-72
2021/06/18 01:29:04;;;;;;;3.27;1.80;;;;;;;16.38;59.65;101145.38;5122631;27;20563;-73
2021/06/18 01:31:40;;;;;;;5.50;2.27;;;;;;;16.00;59.82;101089.03;5107346;28;20223;-71
2021/06/18 01:34:12;;;;;;;3.50;2.00;;;;;;;16.31;59.79;101143.34;5106555;28;20187;-72
2021/06/18 01:36:44;;;;;;;3.43;2.10;;;;;;;16.30;59.78;101137.06;5120201;28;20953;-72
2021/06/18 01:39:12;;;;;;;2.43;2.00;;;;;;;16.26;60.12;101135.59;5107387;28;20215;-73
2021/06/18 01:41:43;;;;;;;3.23;1.90;;;;;;;16.28;59.32;101144.47;5109182;28;20207;-73
2021/06/18 01:44:13;;;;;;;5.00;2.20;;;;;;;16.24;59.87;101134.00;5108535;28;20215;-73
2021/06/18 01:46:44;;;;;;;6.03;2.27;;;;;;;16.17;59.49;101113.81;5115610;28;20204;-73
2021/06/18 01:49:14;;;;;;;2.93;2.07;;;;;;;16.08;60.34;101110.06;5108819;28;20313;-73
2021/06/18 01:51:44;;;;;;;3.23;2.27;;;;;;;16.14;61.01;101125.78;5122301;27;20677;-73
2021/06/18 01:54:15;;;;;;;2.70;2.10;;;;;;;16.03;61.68;101112.28;5107390;28;20288;-76
2021/06/18 01:56:46;;;;;;;5.87;2.10;;;;;;;15.84;61.59;101080.47;5109108;28;20568;-71
2021/06/18 01:59:16;;;;;;;3.90;1.97;;;;;;;15.82;61.84;101071.63;5105746;28;20210;-72
2021/06/18 02:01:49;;;;;;;2.57;2.10;;;;;;;16.00;61.65;101102.59;5108447;28;20655;-71
2021/06/18 02:04:17;;;;;;;2.10;1.97;;;;;;;16.00;61.74;101101.72;5109774;28;20199;-72
2021/06/18 02:06:49;;;;;;;4.80;2.07;;;;;;;16.01;61.79;101092.59;5106721;28;20191;-72
2021/06/18 02:09:18;;;;;;;3.47;2.07;;;;;;;15.97;61.76;101091.16;5110346;28;20203;-72
2021/06/18 02:11:47;;;;;;;2.60;2.10;;;;;;;15.94;62.27;101086.84;5118434;27;20211;-72
2021/06/18 02:14:19;;;;;;;4.77;1.77;;;;;;;15.94;62.33;101084.16;5126108;27;20290;-72
2021/06/18 02:16:51;;;;;;;3.20;2.03;;;;;;;15.96;61.92;101082.16;5106735;28;20219;-72
2021/06/18 02:19:22;;;;;;;3.20;2.40;;;;;;;15.98;61.21;101079.31;5110933;28;22156;-73
2021/06/18 02:21:52;;;;;;;6.27;2.43;;;;;;;15.75;61.54;101041.50;5113398;28;20612;-72
2021/06/18 02:24:24;;;;;;;5.40;2.40;;;;;;;16.03;61.60;101077.94;5109354;28;20569;-72
2021/06/18 02:26:54;;;;;;;2.70;2.23;;;;;;;15.96;61.66;101057.78;5113405;28;20191;-72
2021/06/18 02:29:23;;;;;;;4.57;2.47;;;;;;;16.10;62.11;101060.16;5106290;28;20241;-72
2021/06/18 02:31:55;;;;;;;5.30;2.90;;;;;;;16.17;62.11;101071.31;5110513;28;20200;-73
2021/06/18 02:34:23;;;;;;;7.30;2.87;;;;;;;16.39;62.41;101063.06;5128109;27;20646;-72
2021/06/18 02:36:51;;;;;;;4.70;2.67;;;;;;;16.74;63.33;101053.72;5111335;28;20277;-72
2021/06/18 02:39:19;;;;;;;6.80;3.43;;;;;;;17.11;63.23;101050.41;5104911;28;20663;-72
2021/06/18 02:41:48;;;;;;;6.70;2.77;;;;;;;17.59;62.46;101045.06;5105623;28;20723;-72
2021/06/18 02:44:16;;;;;;;3.73;2.53;;;;;;;18.12;61.92;101045.53;5105813;28;20852;-72
2021/06/18 02:46:55;;;;;;;3.07;2.57;;;;;;;18.67;61.28;101048.41;5107449;28;20196;-72
2021/06/18 02:49:32;;;;;;;3.00;2.20;;;;;;;19.21;60.04;101042.13;5112009;28;20199;-73
2021/06/18 02:52:05;;;;;;;5.20;2.30;;;;;;;19.77;58.43;101040.19;5109893;28;20203;-72
2021/06/18 02:54:38;;;;;;;2.23;2.03;;;;;;;20.34;58.21;101030.63;5105791;28;20239;-72
2021/06/18 02:57:11;;;;;;;2.10;1.90;;;;;;;20.86;56.43;101036.06;5113299;28;20716;-73
2021/06/18 02:59:48;;;;;;;2.70;2.03;;;;;;;21.06;54.85;100990.22;5112943;28;20671;-73
2021/06/18 03:02:20;;;;;;;2.23;2.03;;;;;;;21.46;53.96;101014.13;5113513;27;20211;-73
2021/06/18 03:04:50;;;;;;;2.47;1.77;;;;;;;21.63;53.46;101020.44;5113706;28;20560;-73
2021/06/18 03:07:23;;;;;;;2.57;1.90;;;;;;;21.39;53.60;101021.25;5112066;28;20204;-73
2021/06/18 03:09:54;;;;;;;2.83;1.73;;;;;;;21.29;53.05;101002.28;5110345;28;20192;-73
2021/06/18 03:12:25;;;;;;;4.90;1.87;;;;;;;21.37;53.79;101032.34;5109270;28;20596;-74
2021/06/18 03:14:57;;;;;;;4.40;2.40;;;;;;;21.30;54.66;101025.84;5107259;28;20219;-74
2021/06/18 03:17:29;;;;;;;2.47;2.00;;;;;;;21.28;54.57;101008.75;5108743;28;20238;-73
2021/06/18 03:20:02;;;;;;;2.63;2.20;;;;;;;21.47;53.85;101024.03;5111374;28;20286;-73
2021/06/18 03:22:33;;;;;;;2.20;2.00;;;;;;;21.47;53.76;101020.44;5111343;27;20196;-73
2021/06/18 03:25:03;;;;;;;2.50;2.00;;;;;;;21.21;54.98;101017.78;5111806;28;20192;-73
2021/06/18 03:27:34;;;;;;;5.57;2.20;;;;;;;21.12;54.90;101019.59;5111563;28;20193;-73
2021/06/18 03:30:04;;;;;;;7.30;2.20;;;;;;;21.12;55.12;101007.81;5109861;28;20206;-73
2021/06/18 03:32:35;;;;;;;2.50;2.30;;;;;;;20.98;55.66;100998.41;5112103;28;20202;-73
2021/06/18 03:35:03;;;;;;;3.87;1.93;;;;;;;21.00;55.97;100994.47;5112099;28;20192;-73
2021/06/18 03:37:32;;;;;;;3.10;2.17;;;;;;;21.13;55.93;101013.16;5111157;28;20277;-73
2021/06/18 03:40:00;;;;;;;3.93;2.60;;;;;;;21.13;55.81;101013.16;5112566;28;20207;-73
2021/06/18 03:42:28;;;;;;;3.10;2.17;;;;;;;21.00;57.13;101015.47;5111960;28;20192;-73
2021/06/18 03:44:58;;;;;;;3.97;2.33;;;;;;;20.92;56.71;101023.63;5112136;27;20200;-73
2021/06/18 03:47:27;;;;;;;2.57;2.10;;;;;;;20.88;57.23;101022.25;5112000;28;20293;-73
2021/06/18 03:49:58;;;;;;;2.37;2.10;;;;;;;20.77;57.03;101021.50;5100932;28;20203;-73
2021/06/18 03:52:27;;;;;;;2.50;2.30;;;;;;;20.70;57.85;101017.72;5110851;28;20258;-73
2021/06/18 03:54:57;;;;;;;2.47;2.13;;;;;;;20.48;58.74;101018.28;5110066;28;20203;-73
2021/06/18 03:57:25;;;;;;;5.23;2.60;;;;;;;20.45;59.21;101019.44;5112243;28;20550;-72
2021/06/18 03:59:54;;;;;;;5.60;2.30;;;;;;;20.44;59.39;101025.06;5111604;28;20211;-73
2021/06/18 04:02:24;;;;;;;2.43;2.23;;;;;;;20.34;59.57;101018.84;5111963;28;20207;-73
2021/06/18 04:04:55;;;;;;;2.70;2.40;;;;;;;20.32;60.26;101020.88;5111727;28;20232;-73
2021/06/18 04:07:24;;;;;;;2.53;2.17;;;;;;;20.25;60.52;101014.38;5106154;28;20188;-72
2021/06/18 04:09:53;;;;;;;3.37;2.30;;;;;;;20.33;60.86;101017.13;5104469;28;20219;-74
2021/06/18 04:12:22;;;;;;;4.43;2.50;;;;;;;20.49;60.46;101022.72;5112032;28;20196;-73
2021/06/18 04:14:50;;;;;;;4.37;2.40;;;;;;;20.33;61.31;101017.13;5107978;28;20335;-73
2021/06/18 04:17:18;;;;;;;4.00;2.30;;;;;;;20.18;61.64;100995.03;5107542;27;20218;-73
2021/06/18 04:19:46;;;;;;;11.90;2.37;;;;;;;20.38;61.54;101026.53;5108886;28;20230;-73
2021/06/18 04:22:20;;;;;;;3.13;2.00;;;;;;;20.35;61.75;101020.56;5106866;28;20650;-72
2021/06/18 04:24:49;;;;;;;3.23;2.20;;;;;;;20.35;62.04;101015.09;5109027;28;20199;-73
2021/06/18 04:27:17;;;;;;;2.60;2.40;;;;;;;20.19;61.97;101006.78;5107503;28;20675;-73
2021/06/18 04:29:46;;;;;;;4.83;2.40;;;;;;;20.14;62.93;101012.72;5110908;28;20189;-73
2021/06/18 04:32:14;;;;;;;3.43;2.17;;;;;;;20.21;62.40;101008.38;5110073;28;20250;-73
2021/06/18 04:34:42;;;;;;;2.63;2.23;;;;;;;20.16;62.70;101011.56;5106629;28;20605;-72
2021/06/18 04:37:10;;;;;;;3.77;2.47;;;;;;;20.20;63.10;101013.97;5109428;28;20235;-73
2021/06/18 04:39:38;;;;;;;3.47;2.10;;;;;;;20.23;62.79;101009.06;5109352;27;20200;-73
2021/06/18 04:42:08;;;;;;;3.40;2.30;;;;;;;20.25;62.71;101004.31;5107061;28;20572;-73
2021/06/18 04:44:36;;;;;;;2.63;2.20;;;;;;;20.37;62.20;101008.47;5104090;28;20265;-73
2021/06/18 04:47:04;;;;;;;3.13;2.10;;;;;;;20.28;62.52;100982.16;5101490;28;20595;-73
2021/06/18 04:49:32;;;;;;;6.03;2.90;;;;;;;20.29;63.15;100997.50;5110640;28;20222;-73
2021/06/18 04:52:00;;;;;;;4.50;2.47;;;;;;;20.28;63.63;100994.94;5109776;28;20546;-73
2021/06/18 04:54:29;;;;;;;2.50;2.30;;;;;;;20.17;63.29;100986.00;5110615;28;20683;-73
2021/06/18 04:56:57;;;;;;;4.27;2.43;;;;;;;20.39;64.08;101003.69;5109732;27;20634;-73
2021/06/18 04:59:26;;;;;;;2.50;2.30;;;;;;;20.55;63.54;100994.81;5109798;28;20200;-73
2021/06/18 05:01:54;;;;;;;4.50;2.60;;;;;;;20.77;62.76;100998.81;5109597;28;20283;-74
2021/06/18 05:04:23;;;;;;;8.10;2.63;;;;;;;20.94;62.91;100989.69;5106675;27;20215;-73
2021/06/18 05:06:51;;;;;;;2.97;2.60;;;;;;;21.10;62.33;100991.59;5110078;28;20574;-72
2021/06/18 05:09:19;;;;;;;5.70;2.23;;;;;;;21.15;62.12;100986.50;5111149;27;20228;-72
2021/06/18 05:11:47;;;;;;;5.53;2.60;;;;;;;21.35;61.59;100995.28;5106813;27;20207;-72
2021/06/18 05:14:15;;;;;;;2.43;2.23;;;;;;;21.45;61.65;100971.41;5109378;28;20200;-72
2021/06/18 05:16:45;;;;;;;4.87;2.60;;;;;;;21.57;61.36;100967.31;5110077;28;20289;-72
2021/06/18 05:19:13;;;;;;;5.77;2.57;;;;;;;21.90;60.84;100986.44;5108899;28;20298;-72
2021/06/18 05:21:41;;;;;;;2.70;2.50;;;;;;;22.17;61.16;100993.47;5105700;28;20200;-72
2021/06/18 05:24:10;;;;;;;4.03;2.50;;;;;;;22.25;59.93;100987.97;5108270;28;20203;-72
2021/06/18 05:26:38;;;;;;;4.20;2.77;;;;;;;22.28;59.74;100988.47;5108628;28;20559;-72
2021/06/18 05:29:06;;;;;;;3.63;2.30;;;;;;;22.52;59.05;100993.06;5107948;28;20253;-72
2021/06/18 05:31:34;;;;;;;2.50;2.30;;;;;;;22.63;59.50;100983.59;5108990;28;20200;-73
2021/06/18 05:34:04;;;;;;;6.30;2.47;;;;;;;22.64;58.14;100977.09;5107384;28;20675;-72
2021/06/18 05:36:32;;;;;;;3.13;2.70;;;;;;;22.67;59.35;100967.69;5110436;28;20645;-73
2021/06/18 05:39:01;;;;;;;5.83;2.60;;;;;;;22.92;58.40;100972.03;5109399;28;20223;-73
2021/06/18 05:41:29;;;;;;;5.40;3.07;;;;;;;23.03;58.74;100982.63;5110604;28;20200;-72
2021/06/18 05:43:57;;;;;;;2.73;2.53;;;;;;;23.27;58.14;100970.66;5107533;28;20211;-72
2021/06/18 05:46:25;;;;;;;3.53;2.70;;;;;;;23.30;58.19;100950.28;5110512;28;20238;-73
2021/06/18 05:48:53;;;;;;;3.40;2.53;;;;;;;23.57;58.16;100974.41;5109184;28;20613;-72
2021/06/18 05:51:23;;;;;;;4.83;2.90;;;;;;;23.64;57.60;100974.56;5110800;28;20223;-72
2021/06/18 05:53:53;;;;;;;5.60;2.87;;;;;;;23.90;57.01;100965.94;5114076;28;20188;-72
2021/06/18 05:56:21;;;;;;;4.03;3.00;;;;;;;24.05;56.60;100967.66;5113705;28;20237;-73
2021/06/18 05:58:49;;;;;;;4.03;2.63;;;;;;;24.24;55.56;100971.78;5108821;28;20219;-73
2021/06/18 06:01:18;;;;;;;3.37;2.53;;;;;;;24.48;55.27;100964.31;5114941;28;20195;-72
2021/06/18 06:03:58;;;;;;;5.03;3.10;;;;;;;24.49;54.48;100964.16;5109595;28;20258;-72
2021/06/18 06:06:29;;;;;;;4.80;2.80;;;;;;;24.60;54.49;100971.06;5114440;28;20192;-73
2021/06/18 06:08:57;;;;;;;8.83;2.90;;;;;;;24.63;53.96;100962.44;5114280;28;20241;-72
2021/06/18 06:11:27;;;;;;;5.43;3.20;;;;;;;24.86;53.94;100954.09;5106725;28;20242;-73
2021/06/18 06:14:00;;;;;;;5.10;2.73;;;;;;;25.22;53.96;100956.88;5124693;27;20215;-73
2021/06/18 06:16:28;;;;;;;3.37;2.80;;;;;;;25.39;53.78;100950.91;5114495;28;20637;-73
2021/06/18 06:18:56;;;;;;;3.67;3.05;;;;;;;25.63;52.55;100959.84;5105312;28;20718;-73
2021/06/18 06:21:25;;;;;;;7.72;3.25;;;;;;;25.84;52.40;100953.50;5114073;28;20218;-73
2021/06/18 06:23:55;;;;;;;4.20;3.00;;;;;;;26.08;51.00;100955.84;5114786;28;20216;-73
2021/06/18 06:26:23;;;;;;;4.53;3.08;;;;;;;26.38;51.50;100962.00;5114011;28;20188;-73
2021/06/18 06:28:51;;;;;;;3.55;2.88;;;;;;;26.73;51.04;100950.97;5112868;28;20215;-73
2021/06/18 06:31:19;;;;;;;5.00;3.30;;;;;;;26.79;49.94;100964.78;5113098;28;20195;-72
2021/06/18 06:33:48;;;;;;;4.15;2.90;;;;;;;27.04;49.20;100953.25;5111556;27;20204;-73
2021/06/18 06:36:16;;;;;;;3.28;2.97;;;;;;;27.42;48.70;100951.66;5108122;28;20200;-73
2021/06/18 06:38:47;;;;;;;4.95;3.20;;;;;;;27.33;48.11;100947.41;5111742;28;20223;-73
2021/06/18 06:41:17;;;;;;;3.78;3.17;;;;;;;27.53;48.44;100952.94;5111927;28;20199;-73
2021/06/18 06:43:45;;;;;;;4.53;3.33;;;;;;;27.52;47.53;100952.09;5109998;28;20531;-73
2021/06/18 06:46:13;;;;;;;4.22;3.17;;;;;;;27.51;49.15;100938.50;5111842;28;20188;-73
2021/06/18 06:48:41;;;;;;;3.80;3.05;;;;;;;27.53;47.80;100942.75;5112046;28;20192;-73
2021/06/18 06:51:09;;;;;;;4.03;3.33;;;;;;;27.78;47.62;100944.94;5111964;27;20192;-73
2021/06/18 06:53:37;;;;;;;4.82;3.20;;;;;;;27.91;48.05;100947.72;5111099;28;20210;-73
2021/06/18 06:56:05;;;;;;;4.97;3.33;;;;;;;27.77;48.37;100921.16;5104861;28;20641;-73
2021/06/18 06:58:35;;;;;;;4.53;3.50;;;;;;;27.92;48.98;100946.66;5112529;28;20227;-73
2021/06/18 07:01:03;;;;;;;3.65;3.20;;;;;;;28.08;47.98;100940.69;5111664;28;20649;-73
2021/06/18 07:03:31;;;;;;;5.57;3.72;;;;;;;28.24;48.11;100933.03;5107183;28;20195;-73
2021/06/18 07:05:59;;;;;;;4.47;3.47;;;;;;;28.38;47.62;100934.72;5108224;28;20200;-73
2021/06/18 07:08:28;;;;;;;4.43;3.35;;;;;;;28.60;47.37;100930.63;5105356;28;20200;-73
2021/06/18 07:10:56;;;;;;;4.70;3.80;;;;;;;28.81;47.60;100928.66;5107776;28;20201;-73
2021/06/18 07:13:24;;;;;;;5.20;3.50;;;;;;;29.03;46.93;100927.28;5102604;28;20212;-73
2021/06/18 07:15:54;;;;;;;4.88;3.47;;;;;;;29.02;46.71;100920.88;5111564;28;20715;-73
2021/06/18 07:18:23;;;;;;;4.40;3.38;;;;;;;28.98;45.26;100925.16;5111948;28;20278;-73
2021/06/18 07:20:51;;;;;;;7.22;3.45;;;;;;;29.57;44.50;100906.53;5104906;28;20196;-73
2021/06/18 07:23:19;;;;;;;7.28;3.58;;;;;;;29.94;45.51;100919.41;5110041;28;20286;-72
2021/06/18 07:25:48;;;;;;;4.53;3.75;;;;;;;30.02;44.07;100912.75;5111701;28;20857;-72
2021/06/18 07:28:16;;;;;;;4.55;3.65;;;;;;;30.18;44.05;100914.97;5111021;28;20191;-72
2021/06/18 07:30:44;;;;;;;5.50;4.43;;;;;;;30.17;43.57;100901.34;5112243;28;20538;-73
2021/06/18 07:33:13;;;;;;;5.95;3.53;;;;;;;30.43;42.72;100917.69;5111125;28;20188;-73
2021/06/18 07:35:42;;;;;;;4.93;3.67;;;;;;;30.44;42.98;100910.22;5104913;28;20201;-73
2021/06/18 07:38:10;;;;;;;6.85;3.80;;;;;;;30.43;43.50;100911.28;5109521;28;20196;-72
2021/06/18 07:40:39;;;;;;;4.22;3.75;;;;;;;30.43;43.17;100901.06;5110851;28;20569;-73
2021/06/18 07:43:07;;;;;;;5.75;3.85;;;;;;;30.17;43.42;100876.38;5111710;28;20253;-73
2021/06/18 07:45:35;;;;;;;8.30;4.00;;;;;;;30.57;43.70;100905.34;5110750;28;20192;-72
2021/06/18 07:48:09;;;;;;;8.00;3.90;;;;;;;30.66;43.52;100899.53;5109952;28;20675;-73
2021/06/18 07:50:47;;;;;;;5.72;4.07;;;;;;;30.78;43.99;100878.25;5109593;28;20199;-72
2021/06/18 07:53:19;;;;;;;4.43;4.03;;;;;;;31.01;43.55;100897.78;5110460;27;20208;-74
2021/06/18 07:55:49;;;;;;;4.80;4.00;;;;;;;31.35;42.32;100909.28;5109800;28;20265;-73
2021/06/18 07:58:17;;;;;;;6.53;4.57;;;;;;;31.62;41.55;100898.59;5107602;28;20196;-73
2021/06/18 08:00:45;;;;;;;8.48;4.22;;;;;;;31.99;41.00;100882.59;5106948;27;20226;-72
2021/06/18 08:03:13;;;;;;;5.30;4.28;;;;;;;32.60;39.83;100897.91;5106679;28;20200;-73
2021/06/18 08:05:42;;;;;;;4.60;3.88;;;;;;;32.87;39.41;100895.44;5108041;28;20196;-73
2021/06/18 08:08:12;;;;;;;5.68;4.20;;;;;;;33.31;38.70;100899.38;5105931;27;20539;-73
2021/06/18 08:10:51;;;;;;;5.75;4.10;;;;;;;33.70;38.58;100907.91;5102436;27;20303;-74
2021/06/18 08:13:22;;;;;;;5.32;4.20;;;;;;;33.97;37.61;100900.53;5105219;27;20216;-73
2021/06/18 08:15:50;;;;;;;5.15;4.00;;;;;;;34.30;36.56;100898.81;5109351;28;20563;-73
2021/06/18 08:18:18;;;;;;;8.02;4.22;;;;;;;34.30;35.67;100899.66;5108504;28;20236;-73
2021/06/18 08:20:48;;;;;;;4.53;3.85;;;;;;;34.66;35.77;100901.03;5109180;28;20220;-73
2021/06/18 08:23:16;;;;;;;8.88;4.13;;;;;;;34.84;35.07;100894.28;5106303;28;20214;-73
2021/06/18 08:25:44;;;;;;;5.07;4.28;;;;;;;35.02;33.84;100895.88;5109656;28;20200;-73
2021/06/18 08:28:13;;;;;;;5.50;3.92;;;;;;;35.26;34.58;100891.69;5108313;28;20199;-73
2021/06/18 08:30:41;;;;;;;7.60;4.35;;;;;;;35.35;34.04;100890.13;5107572;28;20192;-73
2021/06/18 08:33:09;;;;;;;6.47;4.00;;;;;;;35.57;33.24;100892.00;5107764;28;20210;-73
2021/06/18 08:35:38;;;;;;;4.63;4.20;;;;;;;35.56;33.61;100842.81;5108596;28;20774;-72
2021/06/18 08:38:07;;;;;;;4.80;4.22;;;;;;;35.87;33.83;100897.03;5108127;28;20215;-73
2021/06/18 08:40:36;;;;;;;5.78;4.20;;;;;;;35.76;33.73;100893.28;5108691;28;20618;-72
2021/06/18 08:43:08;;;;;;;4.30;3.90;;;;;;;35.98;31.99;100884.81;5108416;28;20720;-72
2021/06/18 08:45:37;;;;;;;5.35;4.20;;;;;;;36.09;31.31;100894.94;5108146;28;20586;-72
2021/06/18 08:48:05;;;;;;;6.72;4.80;;;;;;;36.05;31.36;100883.44;5107983;28;20227;-72
2021/06/18 08:50:34;;;;;;;4.72;4.22;;;;;;;35.84;31.83;100875.22;5105089;28;20216;-72
2021/06/18 08:53:03;;;;;;;5.15;4.00;;;;;;;35.94;31.52;100876.13;5107976;28;20691;-72
2021/06/18 08:55:33;;;;;;;4.45;3.85;;;;;;;36.15;31.89;100867.88;5107691;28;20676;-73
2021/06/18 08:58:03;;;;;;;5.63;4.15;;;;;;;36.29;32.00;100883.03;5106901;28;20257;-72
2021/06/18 09:00:33;;;;;;;6.40;4.53;;;;;;;36.23;30.69;100876.59;5105104;28;20674;-72
2021/06/18 09:03:41;;;;;;;4.32;3.92;;;;;;;36.42;30.11;100879.78;5105938;28;20563;-72
2021/06/18 09:06:30;;;;;;;5.20;4.10;;;;;;;36.53;30.72;100872.28;5102354;28;20189;-73
2021/06/18 09:09:16;;;;;;;5.65;4.00;;;;;;;36.55;31.82;100865.28;5106507;28;20275;-72
2021/06/18 09:11:49;;;;;;;5.60;4.25;;;;;;;36.50;30.22;100856.03;5107092;28;20195;-72
2021/06/18 09:14:25;;;;;;;5.18;4.25;;;;;;;36.55;30.03;100884.91;5105737;28;20207;-73
2021/06/18 09:17:11;;;;;;;6.18;3.85;;;;;;;36.95;29.38;100872.19;5105878;28;20674;-72
2021/06/18 09:19:42;;;;;;;4.90;4.32;;;;;;;37.20;29.46;100872.22;5106936;28;20323;-72
2021/06/18 09:22:12;;;;;;;5.03;4.07;;;;;;;37.25;30.08;100875.06;5105353;28;20253;-72
2021/06/18 09:24:42;;;;;;;8.73;4.70;;;;;;;37.02;30.43;100849.50;5105692;28;20221;-73
2021/06/18 09:27:12;;;;;;;5.22;4.50;;;;;;;37.21;30.38;100865.50;5105756;28;20195;-72
2021/06/18 09:29:42;;;;;;;4.68;4.22;;;;;;;37.07;29.27;100872.78;5106721;28;20296;-72
2021/06/18 09:32:13;;;;;;;4.43;4.03;;;;;;;37.21;29.53;100879.53;5101290;28;20192;-72
2021/06/18 09:34:48;;;;;;;4.80;4.25;;;;;;;37.09;28.93;100853.72;5105142;28;20196;-72
2021/06/18 09:37:27;;;;;;;5.80;4.35;;;;;;;37.41;29.16;100877.91;5104541;28;20569;-72
2021/06/18 09:40:12;;;;;;;5.78;4.20;;;;;;;37.52;29.19;100869.22;5104097;28;20760;-73
2021/06/18 09:42:56;;;;;;;5.55;4.15;;;;;;;37.56;28.19;100875.94;5105328;28;20192;-73
2021/06/18 09:45:25;;;;;;;4.00;3.65;;;;;;;37.49;29.03;100874.53;5103063;28;20192;-72
2021/06/18 09:48:06;;;;;;;4.10;3.72;;;;;;;37.39;28.96;100880.16;5103496;28;20192;-72
2021/06/18 09:50:36;;;;;;;6.38;4.25;;;;;;;37.20;28.58;100871.41;5105094;28;20261;-71
2021/06/18 09:53:15;;;;;;;5.18;4.47;;;;;;;37.15;28.32;100868.59;5104494;28;20196;-71
2021/06/18 09:55:45;;;;;;;5.55;4.40;;;;;;;37.57;28.83;100868.38;5107813;28;20206;-72
2021/06/18 09:58:32;;;;;;;4.68;4.00;;;;;;;37.86;28.24;100886.34;5107022;28;20200;-72
2021/06/18 10:01:19;;;;;;;5.60;4.43;;;;;;;37.58;28.29;100864.44;5106705;28;20203;-73
2021/06/18 10:03:58;;;;;;;5.05;4.05;;;;;;;37.63;28.52;100864.44;5106543;28;20829;-72
2021/06/18 10:06:27;;;;;;;5.75;4.45;;;;;;;37.63;28.83;100870.03;5107668;28;20219;-72
2021/06/18 10:08:55;;;;;;;6.50;4.03;;;;;;;37.86;28.91;100872.31;5107459;28;20199;-72
2021/06/18 10:11:24;;;;;;;6.30;4.60;;;;;;;38.06;28.86;100867.78;5107903;28;20567;-73
2021/06/18 10:13:54;;;;;;;4.80;4.30;;;;;;;38.14;28.15;100864.41;5106058;28;20290;-72
2021/06/18 10:16:23;;;;;;;4.30;3.88;;;;;;;37.64;27.75;100840.03;5105204;28;20239;-72
2021/06/18 10:18:51;;;;;;;5.68;4.07;;;;;;;38.03;28.41;100857.97;5107309;28;20204;-72
2021/06/18 10:21:22;;;;;;;4.93;4.30;;;;;;;38.08;28.24;100859.94;5105961;28;20195;-72
2021/06/18 10:23:55;;;;;;;6.20;4.22;;;;;;;38.29;28.36;100861.59;5107483;28;20246;-72
2021/06/18 10:26:25;;;;;;;4.32;3.90;;;;;;;37.90;28.53;100813.66;5107132;28;20200;-73
2021/06/18 10:28:57;;;;;;;4.97;4.53;;;;;;;38.08;27.82;100851.50;5107611;28;20192;-73
2021/06/18 10:31:31;;;;;;;4.40;4.00;;;;;;;37.95;28.23;100849.28;5107715;28;20585;-72
2021/06/18 10:34:08;;;;;;;4.93;4.22;;;;;;;37.99;28.28;100845.66;5100820;28;20202;-72
2021/06/18 10:36:36;;;;;;;4.65;4.25;;;;;;;38.11;28.68;100848.97;5106685;28;20188;-72
2021/06/18 10:39:12;;;;;;;4.70;4.20;;;;;;;37.59;28.10;100830.50;5107804;28;20200;-72
2021/06/18 10:41:46;;;;;;;5.35;4.20;;;;;;;37.47;27.92;100801.09;5106846;28;20580;-73
2021/06/18 10:44:47;;;;;;;4.65;4.18;;;;;;;37.65;27.87;100803.28;5111051;28;20250;-73
2021/06/18 10:47:43;;;;;;;4.57;4.18;;;;;;;38.08;27.14;100843.09;5109911;28;20191;-73
2021/06/18 10:50:13;;;;;;;5.43;4.45;;;;;;;37.75;28.19;100851.00;5108218;28;20554;-73
2021/06/18 10:52:44;;;;;;;4.82;3.78;;;;;;;37.83;28.28;100852.41;5110734;28;20195;-74
2021/06/18 10:55:14;;;;;;;5.05;4.10;;;;;;;37.49;27.93;100838.09;5109286;28;20212;-75
2021/06/18 10:57:52;;;;;;;4.03;3.72;;;;;;;36.98;27.66;100835.22;5125629;27;20195;-74
2021/06/18 11:00:24;;;;;;;11.05;4.30;;;;;;;36.99;28.19;100831.28;5109959;28;20195;-73
2021/06/18 11:03:03;;;;;;;5.95;3.70;;;;;;;36.58;28.71;100842.34;5111854;28;20203;-72
2021/06/18 11:05:38;;;;;;;4.45;3.90;;;;;;;36.30;29.51;100837.19;5122201;27;20200;-73
2021/06/18 11:08:21;;;;;;;4.53;3.90;;;;;;;36.74;28.61;100832.06;5110567;28;20897;-73
2021/06/18 11:11:02;;;;;;;4.57;4.18;;;;;;;36.72;29.32;100831.47;5118108;27;20269;-76
2021/06/18 11:13:32;;;;;;;5.63;3.90;;;;;;;36.68;29.48;100847.97;5110559;27;20650;-73
2021/06/18 11:16:01;;;;;;;4.93;4.25;;;;;;;36.67;29.56;100842.66;5110103;28;20224;-73
2021/06/18 11:18:35;;;;;;;4.40;4.00;;;;;;;36.88;30.06;100850.03;5110625;28;20257;-73
2021/06/18 11:21:08;;;;;;;6.35;4.32;;;;;;;37.05;30.00;100838.59;5108079;28;20207;-73
2021/06/18 11:23:39;;;;;;;5.00;3.92;;;;;;;37.33;30.05;100847.59;5110636;28;20188;-73
2021/06/18 11:26:13;;;;;;;4.82;3.80;;;;;;;37.37;29.82;100820.72;5108273;28;20200;-73
2021/06/18 11:28:52;;;;;;;4.45;3.95;;;;;;;37.53;28.16;100853.22;5108032;28;20247;-73
2021/06/18 11:31:41;;;;;;;4.65;4.20;;;;;;;37.63;28.68;100852.38;5104396;28;20230;-73
2021/06/18 11:34:25;;;;;;;5.55;4.20;;;;;;;37.41;29.77;100850.72;5108807;28;20215;-72
2021/06/18 11:36:55;;;;;;;7.68;4.40;;;;;;;37.38;30.16;100842.03;5106046;28;20200;-73
2021/06/18 11:39:25;;;;;;;4.45;4.00;;;;;;;37.40;30.52;100848.19;5110590;28;20719;-72
2021/06/18 11:42:08;;;;;;;4.72;4.30;;;;;;;37.34;31.18;100840.88;5107206;28;20200;-73